sensor_id;sensor_type;location;lat;lon;timestamp;temperature;humidity
18299;DHT22;9275;48.690;9.686;2024-03-08T00:01:57;-2.00;99.90
18299;DHT22;9275;48.690;9.686;2024-03-08T00:07:01;-2.10;99.90
18299;DHT22;9275;48.690;9.686;2024-03-08T00:12:06;-2.10;99.90
18299;DHT22;9275;48.690;9.686;2024-03-08T00:17:13;-2.30;99.90
18299;DHT22;9275;48.690;9.686;2024-03-08T00:22:18;-2.30;99.90
18299;DHT22;9275;48.690;9.686;2024-03-08T00:27:25;-2.40;99.90
18299;DHT22;9275;48.690;9.686;2024-03-08T00:32:31;-2.40;99.90
18299;DHT22;9275;48.690;9.686;2024-03-08T00:37:36;-2.40;99.90
18299;DHT22;9275;48.690;9.686;2024-03-08T00:42:40;-2.50;99.90
18299;DHT22;9275;48.690;9.686;2024-03-08T00:47:48;-2.60;99.90
18299;DHT22;9275;48.690;9.686;2024-03-08T00:52:53;-2.50;99.90
18299;DHT22;9275;48.690;9.686;2024-03-08T00:57:57;-2.60;99.90
18299;DHT22;9275;48.690;9.686;2024-03-08T01:03:05;-2.70;99.90
18299;DHT22;9275;48.690;9.686;2024-03-08T01:08:10;-2.70;99.90
18299;DHT22;9275;48.690;9.686;2024-03-08T01:13:14;-2.90;99.90
18299;DHT22;9275;48.690;9.686;2024-03-08T01:18:20;-3.00;99.90
18299;DHT22;9275;48.690;9.686;2024-03-08T01:23:24;-3.00;99.90
18299;DHT22;9275;48.690;9.686;2024-03-08T01:28:30;-3.00;99.90
18299;DHT22;9275;48.690;9.686;2024-03-08T01:33:38;-3.00;99.90
18299;DHT22;9275;48.690;9.686;2024-03-08T01:38:43;-3.10;99.90
18299;DHT22;9275;48.690;9.686;2024-03-08T01:43:48;-3.10;99.90
18299;DHT22;9275;48.690;9.686;2024-03-08T01:48:55;-3.10;99.90
18299;DHT22;9275;48.690;9.686;2024-03-08T01:54:02;-3.10;99.90
18299;DHT22;9275;48.690;9.686;2024-03-08T01:59:08;-3.10;99.90
18299;DHT22;9275;48.690;9.686;2024-03-08T02:04:14;-3.10;99.90
18299;DHT22;9275;48.690;9.686;2024-03-08T02:09:19;-3.10;99.90
18299;DHT22;9275;48.690;9.686;2024-03-08T02:14:24;-3.20;99.90
18299;DHT22;9275;48.690;9.686;2024-03-08T02:19:30;-3.20;99.90
18299;DHT22;9275;48.690;9.686;2024-03-08T02:24:37;-3.20;99.90
18299;DHT22;9275;48.690;9.686;2024-03-08T02:29:43;-3.20;99.90
18299;DHT22;9275;48.690;9.686;2024-03-08T02:34:48;-3.30;99.90
18299;DHT22;9275;48.690;9.686;2024-03-08T02:39:57;-3.30;99.90
18299;DHT22;9275;48.690;9.686;2024-03-08T02:45:01;-3.30;99.90
18299;DHT22;9275;48.690;9.686;2024-03-08T02:50:09;-3.40;99.90
18299;DHT22;9275;48.690;9.686;2024-03-08T02:55:16;-3.40;99.90
18299;DHT22;9275;48.690;9.686;2024-03-08T03:00:20;-3.40;99.90
18299;DHT22;9275;48.690;9.686;2024-03-08T03:05:27;-3.30;99.90
18299;DHT22;9275;48.690;9.686;2024-03-08T03:10:34;-3.40;99.90
18299;DHT22;9275;48.690;9.686;2024-03-08T03:15:39;-3.40;99.90
18299;DHT22;9275;48.690;9.686;2024-03-08T03:20:44;-3.50;99.90
18299;DHT22;9275;48.690;9.686;2024-03-08T03:25:50;-3.60;99.90
18299;DHT22;9275;48.690;9.686;2024-03-08T03:30:55;-3.60;99.90
18299;DHT22;9275;48.690;9.686;2024-03-08T03:36:01;-3.60;99.90
18299;DHT22;9275;48.690;9.686;2024-03-08T03:41:07;-3.60;99.90
18299;DHT22;9275;48.690;9.686;2024-03-08T03:46:14;-3.50;99.90
18299;DHT22;9275;48.690;9.686;2024-03-08T03:51:18;-3.50;99.90
18299;DHT22;9275;48.690;9.686;2024-03-08T03:56:27;-3.60;99.90
18299;DHT22;9275;48.690;9.686;2024-03-08T04:01:32;-3.70;99.90
18299;DHT22;9275;48.690;9.686;2024-03-08T04:06:40;-3.80;99.90
18299;DHT22;9275;48.690;9.686;2024-03-08T04:11:46;-3.90;99.90
18299;DHT22;9275;48.690;9.686;2024-03-08T04:16:51;-3.80;99.90
18299;DHT22;9275;48.690;9.686;2024-03-08T04:21:56;-3.90;99.90
18299;DHT22;9275;48.690;9.686;2024-03-08T04:27:01;-3.90;99.90
18299;DHT22;9275;48.690;9.686;2024-03-08T04:32:08;-3.90;99.90
18299;DHT22;9275;48.690;9.686;2024-03-08T04:37:12;-4.00;99.90
18299;DHT22;9275;48.690;9.686;2024-03-08T04:42:19;-4.00;99.90
18299;DHT22;9275;48.690;9.686;2024-03-08T04:47:23;-4.00;99.90
18299;DHT22;9275;48.690;9.686;2024-03-08T04:52:28;-4.00;99.90
18299;DHT22;9275;48.690;9.686;2024-03-08T04:57:34;-4.10;99.90
18299;DHT22;9275;48.690;9.686;2024-03-08T05:02:41;-4.10;99.90
18299;DHT22;9275;48.690;9.686;2024-03-08T05:07:47;-4.10;99.90
18299;DHT22;9275;48.690;9.686;2024-03-08T05:12:53;-4.10;99.90
18299;DHT22;9275;48.690;9.686;2024-03-08T05:17:59;-4.10;99.90
18299;DHT22;9275;48.690;9.686;2024-03-08T05:23:04;-4.20;99.90
18299;DHT22;9275;48.690;9.686;2024-03-08T05:28:09;-4.20;99.90
18299;DHT22;9275;48.690;9.686;2024-03-08T05:33:14;-4.20;99.90
18299;DHT22;9275;48.690;9.686;2024-03-08T05:38:18;-4.20;99.90
18299;DHT22;9275;48.690;9.686;2024-03-08T05:43:25;-4.20;99.90
18299;DHT22;9275;48.690;9.686;2024-03-08T05:48:30;-4.10;99.90
18299;DHT22;9275;48.690;9.686;2024-03-08T05:53:35;-4.20;99.90
18299;DHT22;9275;48.690;9.686;2024-03-08T05:58:41;-4.10;99.90
18299;DHT22;9275;48.690;9.686;2024-03-08T06:03:45;-4.10;99.90
18299;DHT22;9275;48.690;9.686;2024-03-08T06:08:52;-4.00;99.90
18299;DHT22;9275;48.690;9.686;2024-03-08T06:14:00;-4.00;99.90
18299;DHT22;9275;48.690;9.686;2024-03-08T06:19:05;-4.00;99.90
18299;DHT22;9275;48.690;9.686;2024-03-08T06:24:09;-4.00;99.90
18299;DHT22;9275;48.690;9.686;2024-03-08T06:29:15;-4.00;99.90
18299;DHT22;9275;48.690;9.686;2024-03-08T06:34:20;-4.00;99.90
18299;DHT22;9275;48.690;9.686;2024-03-08T06:39:24;-4.00;99.90
18299;DHT22;9275;48.690;9.686;2024-03-08T06:44:30;-4.00;99.90
18299;DHT22;9275;48.690;9.686;2024-03-08T06:49:35;-4.00;99.90
18299;DHT22;9275;48.690;9.686;2024-03-08T06:54:40;-4.00;99.90
18299;DHT22;9275;48.690;9.686;2024-03-08T06:59:46;-3.90;99.90
18299;DHT22;9275;48.690;9.686;2024-03-08T07:04:50;-3.80;99.90
18299;DHT22;9275;48.690;9.686;2024-03-08T07:09:55;-3.60;99.90
18299;DHT22;9275;48.690;9.686;2024-03-08T07:15:02;-3.50;99.90
18299;DHT22;9275;48.690;9.686;2024-03-08T07:20:07;-3.30;99.90
18299;DHT22;9275;48.690;9.686;2024-03-08T07:25:17;-3.20;99.90
18299;DHT22;9275;48.690;9.686;2024-03-08T07:30:27;-3.10;99.90
18299;DHT22;9275;48.690;9.686;2024-03-08T07:35:49;-2.90;99.90
18299;DHT22;9275;48.690;9.686;2024-03-08T07:40:53;-2.80;99.90
18299;DHT22;9275;48.690;9.686;2024-03-08T07:46:01;-2.60;99.90
18299;DHT22;9275;48.690;9.686;2024-03-08T07:51:06;-2.50;99.90
18299;DHT22;9275;48.690;9.686;2024-03-08T07:56:12;-2.30;99.90
18299;DHT22;9275;48.690;9.686;2024-03-08T08:01:21;-2.10;99.90
18299;DHT22;9275;48.690;9.686;2024-03-08T08:06:25;-1.80;99.90
18299;DHT22;9275;48.690;9.686;2024-03-08T08:11:30;-1.60;99.90
18299;DHT22;9275;48.690;9.686;2024-03-08T08:16:37;-1.30;99.90
18299;DHT22;9275;48.690;9.686;2024-03-08T08:21:44;-0.90;99.90
18299;DHT22;9275;48.690;9.686;2024-03-08T08:26:48;-0.60;99.90
18299;DHT22;9275;48.690;9.686;2024-03-08T08:31:54;-0.30;99.90
18299;DHT22;9275;48.690;9.686;2024-03-08T08:37:05;0.10;99.90
18299;DHT22;9275;48.690;9.686;2024-03-08T08:42:09;0.60;99.90
18299;DHT22;9275;48.690;9.686;2024-03-08T08:47:15;1.00;99.90
18299;DHT22;9275;48.690;9.686;2024-03-08T08:52:21;1.30;99.90
18299;DHT22;9275;48.690;9.686;2024-03-08T08:57:26;1.70;99.90
18299;DHT22;9275;48.690;9.686;2024-03-08T09:02:32;2.00;99.90
18299;DHT22;9275;48.690;9.686;2024-03-08T09:07:37;2.30;99.90
18299;DHT22;9275;48.690;9.686;2024-03-08T09:12:42;2.80;99.90
18299;DHT22;9275;48.690;9.686;2024-03-08T09:17:48;3.30;98.60
18299;DHT22;9275;48.690;9.686;2024-03-08T09:22:54;3.60;97.40
18299;DHT22;9275;48.690;9.686;2024-03-08T09:27:58;4.00;96.10
18299;DHT22;9275;48.690;9.686;2024-03-08T09:33:05;4.30;93.30
18299;DHT22;9275;48.690;9.686;2024-03-08T09:38:10;4.80;93.50
18299;DHT22;9275;48.690;9.686;2024-03-08T09:43:16;5.20;91.70
18299;DHT22;9275;48.690;9.686;2024-03-08T09:48:26;5.30;92.30
18299;DHT22;9275;48.690;9.686;2024-03-08T09:53:32;5.80;90.70
18299;DHT22;9275;48.690;9.686;2024-03-08T09:58:36;6.00;86.10
18299;DHT22;9275;48.690;9.686;2024-03-08T10:03:58;6.30;86.00
18299;DHT22;9275;48.690;9.686;2024-03-08T10:09:03;6.90;83.80
18299;DHT22;9275;48.690;9.686;2024-03-08T10:14:09;7.20;79.80
18299;DHT22;9275;48.690;9.686;2024-03-08T10:19:15;7.20;83.50
18299;DHT22;9275;48.690;9.686;2024-03-08T10:24:19;7.80;79.70
18299;DHT22;9275;48.690;9.686;2024-03-08T10:29:24;8.30;79.20
18299;DHT22;9275;48.690;9.686;2024-03-08T10:34:30;8.30;74.10
18299;DHT22;9275;48.690;9.686;2024-03-08T10:39:35;8.70;76.00
18299;DHT22;9275;48.690;9.686;2024-03-08T10:44:51;9.30;77.10
18299;DHT22;9275;48.690;9.686;2024-03-08T10:50:16;9.50;71.30
18299;DHT22;9275;48.690;9.686;2024-03-08T10:55:25;9.80;69.00
18299;DHT22;9275;48.690;9.686;2024-03-08T11:00:32;10.00;70.20
18299;DHT22;9275;48.690;9.686;2024-03-08T11:05:39;10.40;69.00
18299;DHT22;9275;48.690;9.686;2024-03-08T11:10:49;10.50;67.30
18299;DHT22;9275;48.690;9.686;2024-03-08T11:15:56;11.00;68.50
18299;DHT22;9275;48.690;9.686;2024-03-08T11:21:04;11.20;65.10
18299;DHT22;9275;48.690;9.686;2024-03-08T11:26:18;11.60;64.20
18299;DHT22;9275;48.690;9.686;2024-03-08T11:31:25;12.00;63.90
18299;DHT22;9275;48.690;9.686;2024-03-08T11:36:35;12.10;62.40
18299;DHT22;9275;48.690;9.686;2024-03-08T11:41:40;12.60;61.60
18299;DHT22;9275;48.690;9.686;2024-03-08T11:46:45;12.30;60.80
18299;DHT22;9275;48.690;9.686;2024-03-08T11:51:53;12.70;61.10
18299;DHT22;9275;48.690;9.686;2024-03-08T11:56:59;13.40;60.50
18299;DHT22;9275;48.690;9.686;2024-03-08T12:02:04;12.80;59.00
18299;DHT22;9275;48.690;9.686;2024-03-08T12:07:11;13.10;57.80
18299;DHT22;9275;48.690;9.686;2024-03-08T12:12:17;13.10;58.70
18299;DHT22;9275;48.690;9.686;2024-03-08T12:17:21;12.30;58.10
18299;DHT22;9275;48.690;9.686;2024-03-08T12:22:30;12.40;59.20
18299;DHT22;9275;48.690;9.686;2024-03-08T12:27:35;12.60;58.50
18299;DHT22;9275;48.690;9.686;2024-03-08T12:32:47;12.70;58.40
18299;DHT22;9275;48.690;9.686;2024-03-08T12:37:55;13.10;59.00
18299;DHT22;9275;48.690;9.686;2024-03-08T12:43:00;13.20;56.00
18299;DHT22;9275;48.690;9.686;2024-03-08T12:48:12;13.20;58.30
18299;DHT22;9275;48.690;9.686;2024-03-08T12:53:20;13.40;56.20
18299;DHT22;9275;48.690;9.686;2024-03-08T12:58:26;13.20;57.00
18299;DHT22;9275;48.690;9.686;2024-03-08T13:03:31;13.20;56.10
18299;DHT22;9275;48.690;9.686;2024-03-08T13:08:37;13.10;57.30
18299;DHT22;9275;48.690;9.686;2024-03-08T13:13:42;13.20;55.60
18299;DHT22;9275;48.690;9.686;2024-03-08T13:18:47;13.20;56.90
18299;DHT22;9275;48.690;9.686;2024-03-08T13:23:58;13.50;56.20
18299;DHT22;9275;48.690;9.686;2024-03-08T13:29:04;13.40;55.00
18299;DHT22;9275;48.690;9.686;2024-03-08T13:34:09;12.60;55.60
18299;DHT22;9275;48.690;9.686;2024-03-08T13:39:16;12.20;56.10
18299;DHT22;9275;48.690;9.686;2024-03-08T13:44:23;11.50;57.70
18299;DHT22;9275;48.690;9.686;2024-03-08T13:49:28;11.30;58.20
18299;DHT22;9275;48.690;9.686;2024-03-08T13:54:35;11.20;58.30
18299;DHT22;9275;48.690;9.686;2024-03-08T13:59:39;11.10;60.30
18299;DHT22;9275;48.690;9.686;2024-03-08T14:04:44;11.10;60.10
18299;DHT22;9275;48.690;9.686;2024-03-08T14:09:51;11.00;58.80
18299;DHT22;9275;48.690;9.686;2024-03-08T14:14:56;11.20;58.50
18299;DHT22;9275;48.690;9.686;2024-03-08T14:20:03;11.40;58.60
18299;DHT22;9275;48.690;9.686;2024-03-08T14:25:09;11.80;58.80
18299;DHT22;9275;48.690;9.686;2024-03-08T14:30:21;11.50;57.50
18299;DHT22;9275;48.690;9.686;2024-03-08T14:35:38;11.50;59.70
18299;DHT22;9275;48.690;9.686;2024-03-08T14:40:47;11.60;58.70
18299;DHT22;9275;48.690;9.686;2024-03-08T14:45:52;11.10;58.20
18299;DHT22;9275;48.690;9.686;2024-03-08T14:50:57;11.30;60.10
18299;DHT22;9275;48.690;9.686;2024-03-08T14:56:08;11.40;58.80
18299;DHT22;9275;48.690;9.686;2024-03-08T15:01:15;11.60;56.00
18299;DHT22;9275;48.690;9.686;2024-03-08T15:06:20;12.10;58.20
18299;DHT22;9275;48.690;9.686;2024-03-08T15:11:26;12.50;57.40
18299;DHT22;9275;48.690;9.686;2024-03-08T15:16:31;12.60;56.70
18299;DHT22;9275;48.690;9.686;2024-03-08T15:21:35;12.60;56.40
18299;DHT22;9275;48.690;9.686;2024-03-08T15:26:42;13.00;55.70
18299;DHT22;9275;48.690;9.686;2024-03-08T15:31:51;13.30;55.20
18299;DHT22;9275;48.690;9.686;2024-03-08T15:36:57;13.80;55.60
18299;DHT22;9275;48.690;9.686;2024-03-08T15:42:06;14.30;53.70
18299;DHT22;9275;48.690;9.686;2024-03-08T15:47:11;14.50;52.30
18299;DHT22;9275;48.690;9.686;2024-03-08T15:52:15;14.60;52.70
18299;DHT22;9275;48.690;9.686;2024-03-08T15:57:21;14.30;52.20
18299;DHT22;9275;48.690;9.686;2024-03-08T16:02:26;13.90;53.60
18299;DHT22;9275;48.690;9.686;2024-03-08T16:07:33;13.00;52.80
18299;DHT22;9275;48.690;9.686;2024-03-08T16:12:40;12.50;55.60
18299;DHT22;9275;48.690;9.686;2024-03-08T16:17:44;12.10;56.50
18299;DHT22;9275;48.690;9.686;2024-03-08T16:22:49;11.60;56.80
18299;DHT22;9275;48.690;9.686;2024-03-08T16:27:57;11.10;58.40
18299;DHT22;9275;48.690;9.686;2024-03-08T16:33:01;10.40;60.60
18299;DHT22;9275;48.690;9.686;2024-03-08T16:38:09;10.00;60.70
18299;DHT22;9275;48.690;9.686;2024-03-08T16:43:18;9.50;62.80
18299;DHT22;9275;48.690;9.686;2024-03-08T16:48:27;8.90;64.00
18299;DHT22;9275;48.690;9.686;2024-03-08T16:53:33;8.50;65.20
18299;DHT22;9275;48.690;9.686;2024-03-08T16:58:39;8.20;66.90
18299;DHT22;9275;48.690;9.686;2024-03-08T17:03:45;7.70;68.50
18299;DHT22;9275;48.690;9.686;2024-03-08T17:09:02;7.30;68.80
18299;DHT22;9275;48.690;9.686;2024-03-08T17:14:16;6.90;70.90
18299;DHT22;9275;48.690;9.686;2024-03-08T17:19:23;6.30;72.80
18299;DHT22;9275;48.690;9.686;2024-03-08T17:24:29;6.00;72.90
18299;DHT22;9275;48.690;9.686;2024-03-08T17:29:39;5.70;73.70
18299;DHT22;9275;48.690;9.686;2024-03-08T17:34:44;5.40;76.00
18299;DHT22;9275;48.690;9.686;2024-03-08T17:39:49;5.20;78.00
18299;DHT22;9275;48.690;9.686;2024-03-08T17:44:59;5.10;78.80
18299;DHT22;9275;48.690;9.686;2024-03-08T17:50:04;4.90;80.10
18299;DHT22;9275;48.690;9.686;2024-03-08T17:55:14;4.60;82.60
18299;DHT22;9275;48.690;9.686;2024-03-08T18:00:21;4.30;83.60
18299;DHT22;9275;48.690;9.686;2024-03-08T18:05:29;4.10;84.00
18299;DHT22;9275;48.690;9.686;2024-03-08T18:10:36;3.70;85.70
18299;DHT22;9275;48.690;9.686;2024-03-08T18:15:42;3.60;86.60
18299;DHT22;9275;48.690;9.686;2024-03-08T18:20:50;3.40;87.60
18299;DHT22;9275;48.690;9.686;2024-03-08T18:25:54;3.20;88.90
18299;DHT22;9275;48.690;9.686;2024-03-08T18:31:01;3.00;90.00
18299;DHT22;9275;48.690;9.686;2024-03-08T18:36:06;2.80;90.90
18299;DHT22;9275;48.690;9.686;2024-03-08T18:41:11;2.70;90.90
18299;DHT22;9275;48.690;9.686;2024-03-08T18:46:17;2.50;91.40
18299;DHT22;9275;48.690;9.686;2024-03-08T18:51:21;2.30;91.70
18299;DHT22;9275;48.690;9.686;2024-03-08T18:56:26;2.10;92.10
18299;DHT22;9275;48.690;9.686;2024-03-08T19:01:34;2.10;92.10
18299;DHT22;9275;48.690;9.686;2024-03-08T19:06:39;2.00;92.20
18299;DHT22;9275;48.690;9.686;2024-03-08T19:11:44;1.90;93.20
18299;DHT22;9275;48.690;9.686;2024-03-08T19:16:50;1.80;93.30
18299;DHT22;9275;48.690;9.686;2024-03-08T19:21:56;1.70;93.50
18299;DHT22;9275;48.690;9.686;2024-03-08T19:27:01;1.60;94.00
18299;DHT22;9275;48.690;9.686;2024-03-08T19:32:07;1.50;94.30
18299;DHT22;9275;48.690;9.686;2024-03-08T19:37:14;1.40;94.50
18299;DHT22;9275;48.690;9.686;2024-03-08T19:42:19;1.30;94.90
18299;DHT22;9275;48.690;9.686;2024-03-08T19:47:27;1.20;95.10
18299;DHT22;9275;48.690;9.686;2024-03-08T19:52:32;1.10;95.30
18299;DHT22;9275;48.690;9.686;2024-03-08T19:57:40;1.00;95.50
18299;DHT22;9275;48.690;9.686;2024-03-08T20:02:47;0.80;96.00
18299;DHT22;9275;48.690;9.686;2024-03-08T20:07:52;0.80;96.30
18299;DHT22;9275;48.690;9.686;2024-03-08T20:12:58;0.70;96.30
18299;DHT22;9275;48.690;9.686;2024-03-08T20:18:04;0.60;96.60
18299;DHT22;9275;48.690;9.686;2024-03-08T20:23:12;0.40;96.90
18299;DHT22;9275;48.690;9.686;2024-03-08T20:28:16;0.30;97.30
18299;DHT22;9275;48.690;9.686;2024-03-08T20:33:24;0.30;97.60
18299;DHT22;9275;48.690;9.686;2024-03-08T20:38:29;0.20;97.80
18299;DHT22;9275;48.690;9.686;2024-03-08T20:43:34;0.20;98.10
18299;DHT22;9275;48.690;9.686;2024-03-08T20:48:40;0.20;98.30
18299;DHT22;9275;48.690;9.686;2024-03-08T20:53:48;0.10;98.20
18299;DHT22;9275;48.690;9.686;2024-03-08T20:58:52;0.00;98.60
18299;DHT22;9275;48.690;9.686;2024-03-08T21:03:58;-0.20;99.00
18299;DHT22;9275;48.690;9.686;2024-03-08T21:09:03;-0.30;99.40
18299;DHT22;9275;48.690;9.686;2024-03-08T21:14:14;-0.40;99.70
18299;DHT22;9275;48.690;9.686;2024-03-08T21:19:20;-0.40;99.90
18299;DHT22;9275;48.690;9.686;2024-03-08T21:24:25;-0.40;99.90
18299;DHT22;9275;48.690;9.686;2024-03-08T21:29:29;-0.40;99.90
18299;DHT22;9275;48.690;9.686;2024-03-08T21:34:40;-0.40;99.90
18299;DHT22;9275;48.690;9.686;2024-03-08T21:39:46;-0.40;99.90
18299;DHT22;9275;48.690;9.686;2024-03-08T21:44:50;-0.50;99.90
18299;DHT22;9275;48.690;9.686;2024-03-08T21:49:57;-0.60;99.90
18299;DHT22;9275;48.690;9.686;2024-03-08T21:55:02;-0.70;99.90
18299;DHT22;9275;48.690;9.686;2024-03-08T22:00:07;-0.80;99.90
18299;DHT22;9275;48.690;9.686;2024-03-08T22:05:17;-0.80;99.90
18299;DHT22;9275;48.690;9.686;2024-03-08T22:10:23;-0.80;99.90
18299;DHT22;9275;48.690;9.686;2024-03-08T22:15:29;-0.90;99.90
18299;DHT22;9275;48.690;9.686;2024-03-08T22:20:35;-0.90;99.90
18299;DHT22;9275;48.690;9.686;2024-03-08T22:25:40;-0.90;99.90
18299;DHT22;9275;48.690;9.686;2024-03-08T22:30:45;-1.00;99.90
18299;DHT22;9275;48.690;9.686;2024-03-08T22:35:51;-1.10;99.90
18299;DHT22;9275;48.690;9.686;2024-03-08T22:40:56;-1.10;99.90
18299;DHT22;9275;48.690;9.686;2024-03-08T22:46:01;-1.30;99.90
18299;DHT22;9275;48.690;9.686;2024-03-08T22:51:09;-1.30;99.90
18299;DHT22;9275;48.690;9.686;2024-03-08T22:56:15;-1.30;99.90
18299;DHT22;9275;48.690;9.686;2024-03-08T23:01:19;-1.40;99.90
18299;DHT22;9275;48.690;9.686;2024-03-08T23:06:27;-1.50;99.90
18299;DHT22;9275;48.690;9.686;2024-03-08T23:11:32;-1.50;99.90
18299;DHT22;9275;48.690;9.686;2024-03-08T23:16:37;-1.60;99.90
18299;DHT22;9275;48.690;9.686;2024-03-08T23:21:43;-1.70;99.90
18299;DHT22;9275;48.690;9.686;2024-03-08T23:26:48;-1.70;99.90
18299;DHT22;9275;48.690;9.686;2024-03-08T23:31:52;-1.70;99.90
18299;DHT22;9275;48.690;9.686;2024-03-08T23:36:59;-1.70;99.90
18299;DHT22;9275;48.690;9.686;2024-03-08T23:42:04;-1.70;99.90
18299;DHT22;9275;48.690;9.686;2024-03-08T23:47:09;-1.70;99.90
18299;DHT22;9275;48.690;9.686;2024-03-08T23:52:16;-1.70;99.90
18299;DHT22;9275;48.690;9.686;2024-03-08T23:57:21;-1.80;99.90
